Time;durP1;ratioP1;P1;durP2;ratioP2;P2;SDS_P1;SDS_P2;PMS_P1;PMS_P2;Temp;Humidity;BMP_temperature;BMP_pressure;BME280_temperature;BME280_humidity;BME280_pressure;Samples;Min_cycle;Max_cycle;Signal;HPM_P1;HPM_P2
2023/09/11 00:01:19;;;;;;;;;;;;;;;-144.99;100.00;52238.16;5016369;28;20166;-69
2023/09/11 00:03:49;;;;;;;;;;;;;;;-144.99;100.00;52199.44;5019491;28;19967;-69
2023/09/11 00:06:16;;;;;;;;;;;;;;;-144.99;100.00;52238.16;5021675;28;20046;-69
2023/09/11 00:08:43;;;;;;;;;;;;;;;-144.99;100.00;52215.75;5011398;28;20038;-70
2023/09/11 00:11:09;;;;;;;;;;;;;;;-144.99;100.00;52221.84;5012224;28;19948;-69
2023/09/11 00:13:36;;;;;;;;;;;;;;;-144.99;100.00;52170.91;5014413;28;20386;-70
2023/09/11 00:16:02;;;;;;;;;;;;;;;-144.99;100.00;52219.81;5011975;28;19960;-69
2023/09/11 00:18:29;;;;;;;;;;;;;;;-144.99;100.00;52207.59;5010180;28;19944;-70
2023/09/11 00:20:57;;;;;;;;;;;;;;;-144.99;100.00;52203.50;5018787;28;19988;-70
2023/09/11 00:23:24;;;;;;;;;;;;;;;-144.99;100.00;52232.03;5021612;28;19963;-70
2023/09/11 00:25:50;;;;;;;;;;;;;;;-144.99;100.00;52227.97;5019244;28;19954;-69
2023/09/11 00:28:17;;;;;;;;;;;;;;;-144.99;100.00;52221.84;5021395;28;20042;-69
2023/09/11 00:30:43;;;;;;;;;;;;;;;-144.99;100.00;52215.75;5018016;28;19946;-69
2023/09/11 00:33:10;;;;;;;;;;;;;;;-144.99;100.00;52262.63;5012546;28;19959;-69
2023/09/11 00:35:36;;;;;;;;;;;;;;;-144.99;100.00;52201.47;5019079;28;20000;-69
2023/09/11 00:38:04;;;;;;;;;;;;;;;-144.99;100.00;52221.84;5015820;28;19952;-69
2023/09/11 00:40:31;;;;;;;;;;;;;;;-144.99;100.00;52205.53;5017238;28;19995;-69
2023/09/11 00:42:57;;;;;;;;;;;;;;;-144.99;100.00;52256.50;5022015;28;20018;-69
2023/09/11 00:45:24;;;;;;;;;;;;;;;-144.99;100.00;52217.78;5022617;28;19977;-69
2023/09/11 00:47:50;;;;;;;;;;;;;;;-144.99;100.00;52219.81;5020598;28;19978;-69
2023/09/11 00:50:18;;;;;;;;;;;;;;;-144.99;100.00;52272.81;5016799;28;19960;-69
2023/09/11 00:52:44;;;;;;;;;;;;;;;-144.99;100.00;52227.97;5018897;28;20074;-69
2023/09/11 00:55:12;;;;;;;;;;;;;;;-144.99;100.00;52207.59;5015031;28;20060;-69
2023/09/11 00:57:39;;;;;;;;;;;;;;;-144.99;100.00;52223.88;5023864;28;20046;-69
2023/09/11 01:00:07;;;;;;;;;;;;;;;-144.99;100.00;52256.50;5020523;28;19954;-69
2023/09/11 01:02:33;;;;;;;;;;;;;;;-144.99;100.00;52230.00;5021544;28;19964;-69
2023/09/11 01:05:00;;;;;;;;;;;;;;;-144.99;100.00;52225.94;5018757;28;19947;-69
2023/09/11 01:07:27;;;;;;;;;;;;;;;-144.99;100.00;52246.31;5019229;28;19970;-69
2023/09/11 01:09:53;;;;;;;;;;;;;;;-144.99;100.00;52236.13;5021173;28;20424;-69
2023/09/11 01:12:21;;;;;;;;;;;;;;;-144.99;100.00;52199.44;5021517;28;20296;-69
2023/09/11 01:14:48;;;;;;;;;;;;;;;-144.99;100.00;52193.31;5017330;28;20004;-69
2023/09/11 01:17:18;;;;;;;;;;;;;;;-144.99;100.00;52232.03;5019213;28;20064;-69
2023/09/11 01:19:58;;;;;;;;;;;;;;;-144.99;100.00;52240.19;5013081;28;19988;-69
2023/09/11 01:22:38;;;;;;;;;;;;;;;-144.99;100.00;52215.75;5019711;28;20042;-69
2023/09/11 01:25:12;;;;;;;;;;;;;;;-144.99;100.00;52240.19;5014113;28;20045;-69
2023/09/11 01:27:52;;;;;;;;;;;;;;;-144.99;100.00;52187.19;5014740;28;20387;-69
2023/09/11 01:30:21;;;;;;;;;;;;;;;-144.99;100.00;52219.81;5016971;28;19960;-69
2023/09/11 01:32:48;;;;;;;;;;;;;;;-144.99;100.00;52248.34;5039604;23;20422;-68
2023/09/11 01:35:15;;;;;;;;;;;;;;;-144.99;100.00;52276.88;5029961;28;20047;-68
2023/09/11 01:37:42;;;;;;;;;;;;;;;-144.99;100.00;52232.03;5026722;28;20061;-68
2023/09/11 01:40:09;;;;;;;;;;;;;;;-144.99;100.00;52232.03;5026069;28;19996;-69
2023/09/11 01:42:41;;;;;;;;;;;;;;;-144.99;100.00;52232.03;5016980;28;19964;-70
2023/09/11 01:45:09;;;;;;;;;;;;;;;-144.99;100.00;52236.13;5008487;28;20219;-70
2023/09/11 01:47:37;;;;;;;;;;;;;;;-144.99;100.00;52260.56;5010616;28;19961;-70
2023/09/11 01:50:05;;;;;;;;;;;;;;;-144.99;100.00;52244.28;5003650;28;20007;-69
2023/09/11 01:52:32;;;;;;;;;;;;;;;-144.99;100.00;52240.19;5010015;28;19963;-69
2023/09/11 01:54:59;;;;;;;;;;;;;;;-144.99;100.00;52236.13;5010082;28;20034;-69
2023/09/11 01:57:26;;;;;;;;;;;;;;;-144.99;100.00;52268.72;5008497;28;20321;-70
2023/09/11 01:59:53;;;;;;;;;;;;;;;-144.99;100.00;52232.03;5008023;28;20168;-70
2023/09/11 02:02:19;;;;;;;;;;;;;;;-144.99;100.00;52246.31;5000898;28;20541;-70
2023/09/11 02:04:47;;;;;;;;;;;;;;;-144.99;100.00;52248.34;5009647;28;19979;-69
2023/09/11 02:07:13;;;;;;;;;;;;;;;-144.99;100.00;52223.88;5006542;28;19996;-70
2023/09/11 02:09:40;;;;;;;;;;;;;;;-144.99;100.00;52215.75;5009843;28;20041;-70
2023/09/11 02:12:07;;;;;;;;;;;;;;;-144.99;100.00;52240.19;5007288;28;19952;-71
2023/09/11 02:14:33;;;;;;;;;;;;;;;-144.99;100.00;52221.84;5009184;28;19961;-69
2023/09/11 02:17:02;;;;;;;;;;;;;;;-144.99;100.00;52252.44;5008964;28;20415;-70
2023/09/11 02:19:29;;;;;;;;;;;;;;;-144.99;100.00;52219.81;4997827;28;19954;-68
2023/09/11 02:21:57;;;;;;;;;;;;;;;-144.99;100.00;52244.28;5007576;28;20321;-69
2023/09/11 02:24:23;;;;;;;;;;;;;;;-144.99;100.00;52227.97;5006992;28;20004;-69
2023/09/11 02:26:50;;;;;;;;;;;;;;;-144.99;100.00;52236.13;5009385;28;20024;-68
2023/09/11 02:29:16;;;;;;;;;;;;;;;-144.99;100.00;52232.03;5005688;28;20026;-68
2023/09/11 02:31:43;;;;;;;;;;;;;;;-144.99;100.00;52252.44;5009356;28;19995;-69
2023/09/11 02:34:09;;;;;;;;;;;;;;;-144.99;100.00;52293.19;5005214;28;20102;-68
2023/09/11 02:36:36;;;;;;;;;;;;;;;-144.99;100.00;52215.75;5009172;28;19970;-68
2023/09/11 02:39:04;;;;;;;;;;;;;;;-144.99;100.00;52268.72;5000159;28;20377;-67
2023/09/11 02:41:30;;;;;;;;;;;;;;;-144.99;100.00;52223.88;5002002;28;20038;-67
2023/09/11 02:43:57;;;;;;;;;;;;;;;-144.99;100.00;52256.50;5002618;28;20943;-69
2023/09/11 02:46:23;;;;;;;;;;;;;;;-144.99;100.00;52285.03;5005168;28;19982;-67
2023/09/11 02:48:50;;;;;;;;;;;;;;;-144.99;100.00;52215.75;4997667;28;20344;-68
2023/09/11 02:51:17;;;;;;;;;;;;;;;-144.99;100.00;52256.50;5006803;28;20010;-68
2023/09/11 02:53:43;;;;;;;;;;;;;;;-144.99;100.00;52240.19;5004495;28;19958;-69
2023/09/11 02:56:11;;;;;;;;;;;;;;;-144.99;100.00;52309.50;5008424;28;19946;-67
2023/09/11 02:58:38;;;;;;;;;;;;;;;-144.99;100.00;52240.19;5006995;28;20039;-68
2023/09/11 03:01:05;;;;;;;;;;;;;;;-144.99;100.00;52289.13;4995965;28;19989;-68
2023/09/11 03:03:31;;;;;;;;;;;;;;;-144.99;100.00;52215.75;5004572;28;20281;-68
2023/09/11 03:05:58;;;;;;;;;;;;;;;-144.99;100.00;52232.03;5006546;28;19951;-68
2023/09/11 03:08:25;;;;;;;;;;;;;;;-144.99;100.00;52217.78;5006721;28;19987;-67
2023/09/11 03:10:51;;;;;;;;;;;;;;;-144.99;100.00;52276.88;5005896;28;20050;-70
2023/09/11 03:13:19;;;;;;;;;;;;;;;-144.99;100.00;52240.19;4996474;28;20060;-69
2023/09/11 03:15:46;;;;;;;;;;;;;;;-144.99;100.00;52289.13;5003013;28;19993;-67
2023/09/11 03:18:12;;;;;;;;;;;;;;;-144.99;100.00;52236.13;5008747;28;20061;-70
2023/09/11 03:20:39;;;;;;;;;;;;;;;-144.99;100.00;52260.56;5005434;28;19944;-70
2023/09/11 03:23:05;;;;;;;;;;;;;;;-144.99;100.00;52260.56;5001401;28;20011;-71
2023/09/11 03:25:34;;;;;;;;;;;;;;;-144.99;100.00;52236.13;4999942;28;19953;-70
2023/09/11 03:28:00;;;;;;;;;;;;;;;-144.99;100.00;52254.47;5009060;28;20009;-70
2023/09/11 03:30:28;;;;;;;;;;;;;;;-144.99;100.00;52260.56;5001392;28;19989;-69
2023/09/11 03:32:54;;;;;;;;;;;;;;;-144.99;100.00;52244.28;5008512;28;20029;-70
2023/09/11 03:35:21;;;;;;;;;;;;;;;-144.99;100.00;52260.56;5008071;28;20042;-70
2023/09/11 03:37:47;;;;;;;;;;;;;;;-144.99;100.00;52276.88;5000534;28;19962;-70
2023/09/11 03:40:14;;;;;;;;;;;;;;;-144.99;100.00;52266.69;5004896;28;19978;-70
2023/09/11 03:42:40;;;;;;;;;;;;;;;-144.99;100.00;52252.44;4999460;28;19973;-70
2023/09/11 03:45:08;;;;;;;;;;;;;;;-144.99;100.00;52203.50;5001059;28;20025;-70
2023/09/11 03:47:36;;;;;;;;;;;;;;;-144.99;100.00;52242.22;5008451;28;19946;-70
2023/09/11 03:50:03;;;;;;;;;;;;;;;-144.99;100.00;52260.56;5005701;28;19988;-71
2023/09/11 03:52:30;;;;;;;;;;;;;;;-144.99;100.00;52232.03;5001793;28;19965;-70
2023/09/11 03:54:56;;;;;;;;;;;;;;;-144.99;100.00;52260.56;5003502;28;19994;-70
2023/09/11 03:57:22;;;;;;;;;;;;;;;-144.99;100.00;52244.28;5006782;28;20398;-69
2023/09/11 03:59:49;;;;;;;;;;;;;;;-144.99;100.00;52258.53;5006379;28;20382;-69
2023/09/11 04:02:15;;;;;;;;;;;;;;;-144.99;100.00;52256.50;5003043;28;19949;-70
2023/09/11 04:04:43;;;;;;;;;;;;;;;-144.99;100.00;52232.03;4994113;28;20068;-69
2023/09/11 04:07:10;;;;;;;;;;;;;;;-144.99;100.00;52276.88;5004301;28;19943;-70
2023/09/11 04:09:36;;;;;;;;;;;;;;;-144.99;100.00;52240.19;5012034;28;20031;-71
2023/09/11 04:12:03;;;;;;;;;;;;;;;-144.99;100.00;52264.66;5006063;28;19985;-70
2023/09/11 04:14:30;;;;;;;;;;;;;;;-144.99;100.00;52240.19;5011633;28;19967;-70
2023/09/11 04:16:56;;;;;;;;;;;;;;;-144.99;100.00;52272.81;5011933;28;20040;-68
2023/09/11 04:19:23;;;;;;;;;;;;;;;-144.99;100.00;52260.56;5007782;28;20401;-70
2023/09/11 04:21:51;;;;;;;;;;;;;;;-144.99;100.00;52264.66;5009774;28;20408;-70
2023/09/11 04:24:17;;;;;;;;;;;;;;;-144.99;100.00;52242.22;5006410;28;20434;-70
2023/09/11 04:26:44;;;;;;;;;;;;;;;-144.99;100.00;52248.34;5006205;28;20007;-70
2023/09/11 04:29:11;;;;;;;;;;;;;;;-144.99;100.00;52244.28;5009305;28;19956;-70
2023/09/11 04:31:38;;;;;;;;;;;;;;;-144.99;100.00;52244.28;5010795;28;20039;-70
2023/09/11 04:34:04;;;;;;;;;;;;;;;-144.99;100.00;52272.81;5005657;28;20056;-72
2023/09/11 04:36:31;;;;;;;;;;;;;;;-144.99;100.00;52260.56;5008167;28;19989;-70
2023/09/11 04:38:58;;;;;;;;;;;;;;;-144.99;100.00;52276.88;5010959;28;20014;-71
2023/09/11 04:41:25;;;;;;;;;;;;;;;-144.99;100.00;52260.56;5008207;28;19957;-69
2023/09/11 04:43:51;;;;;;;;;;;;;;;-144.99;100.00;52289.13;5007835;28;20048;-70
2023/09/11 04:46:18;;;;;;;;;;;;;;;-144.99;100.00;52252.44;5005595;28;19995;-69
2023/09/11 04:48:45;;;;;;;;;;;;;;;-144.99;100.00;52236.13;4995267;28;20002;-70
2023/09/11 04:51:11;;;;;;;;;;;;;;;-144.99;100.00;52311.53;5010679;28;20027;-68
2023/09/11 04:53:38;;;;;;;;;;;;;;;-144.99;100.00;52248.34;5004950;28;20053;-70
2023/09/11 04:56:06;;;;;;;;;;;;;;;-144.99;100.00;52254.47;5004505;28;19951;-71
2023/09/11 04:58:32;;;;;;;;;;;;;;;-144.99;100.00;52264.66;5003710;28;20547;-69
2023/09/11 05:00:59;;;;;;;;;;;;;;;-144.99;100.00;52293.19;5010803;28;20005;-72
2023/09/11 05:03:25;;;;;;;;;;;;;;;-144.99;100.00;52270.78;5004806;28;20008;-69
2023/09/11 05:05:52;;;;;;;;;;;;;;;-144.99;100.00;52264.66;5000691;28;20040;-69
2023/09/11 05:08:18;;;;;;;;;;;;;;;-144.99;100.00;52264.66;5010454;28;20474;-70
2023/09/11 05:10:45;;;;;;;;;;;;;;;-144.99;100.00;52240.19;5011204;28;20231;-68
2023/09/11 05:13:13;;;;;;;;;;;;;;;-144.99;100.00;52289.13;5008385;28;20088;-67
2023/09/11 05:15:39;;;;;;;;;;;;;;;-144.99;100.00;52268.72;5006073;28;19982;-67
2023/09/11 05:18:06;;;;;;;;;;;;;;;-144.99;100.00;52264.66;5010839;28;19997;-68
2023/09/11 05:20:32;;;;;;;;;;;;;;;-144.99;100.00;52266.69;5006263;28;20482;-68
2023/09/11 05:22:59;;;;;;;;;;;;;;;-144.99;100.00;52240.19;4996004;28;20096;-68
2023/09/11 05:25:25;;;;;;;;;;;;;;;-144.99;100.00;52280.97;4999750;28;19942;-68
2023/09/11 05:27:52;;;;;;;;;;;;;;;-144.99;100.00;52244.28;5001221;28;20378;-68
2023/09/11 05:30:20;;;;;;;;;;;;;;;-144.99;100.00;52248.34;5006552;28;20006;-68
2023/09/11 05:32:51;;;;;;;;;;;;;;;-144.99;100.00;52266.69;5008548;28;19993;-68
2023/09/11 05:35:18;;;;;;;;;;;;;;;-144.99;100.00;52217.78;5002785;28;19948;-69
2023/09/11 05:37:44;;;;;;;;;;;;;;;-144.99;100.00;52236.13;5010429;28;20049;-69
2023/09/11 05:40:11;;;;;;;;;;;;;;;-144.99;100.00;52268.72;4999838;28;20042;-68
2023/09/11 05:42:38;;;;;;;;;;;;;;;-144.99;100.00;52244.28;5006057;28;19987;-69
2023/09/11 05:45:05;;;;;;;;;;;;;;;-144.99;100.00;52248.34;5007950;28;20412;-68
2023/09/11 05:47:33;;;;;;;;;;;;;;;-144.99;100.00;52260.56;5007363;28;20345;-68
2023/09/11 05:50:00;;;;;;;;;;;;;;;-144.99;100.00;52217.78;5008623;28;20379;-68
2023/09/11 05:52:27;;;;;;;;;;;;;;;-144.99;100.00;52248.34;5009984;28;19969;-68
2023/09/11 05:54:53;;;;;;;;;;;;;;;-144.99;100.00;52230.00;5007435;28;19942;-68
2023/09/11 05:57:19;;;;;;;;;;;;;;;-144.99;100.00;52260.56;5010294;28;20383;-69
2023/09/11 05:59:47;;;;;;;;;;;;;;;-144.99;100.00;52238.16;5007326;28;20008;-68
2023/09/11 06:02:13;;;;;;;;;;;;;;;-144.99;100.00;52227.97;5010179;28;19948;-69
2023/09/11 06:04:41;;;;;;;;;;;;;;;-144.99;100.00;52227.97;5009429;28;20039;-68
2023/09/11 06:07:07;;;;;;;;;;;;;;;-144.99;100.00;52240.19;5006366;28;19945;-69
2023/09/11 06:09:34;;;;;;;;;;;;;;;-144.99;100.00;52260.56;5003886;28;19980;-68
2023/09/11 06:12:00;;;;;;;;;;;;;;;-144.99;100.00;52248.34;5011116;28;20403;-69
2023/09/11 06:14:27;;;;;;;;;;;;;;;-144.99;100.00;52240.19;5006736;28;20331;-68
2023/09/11 06:16:53;;;;;;;;;;;;;;;-144.99;100.00;52227.97;5003007;28;20161;-68
2023/09/11 06:19:20;;;;;;;;;;;;;;;-144.99;100.00;52240.19;5009299;28;20087;-69
2023/09/11 06:21:48;;;;;;;;;;;;;;;-144.99;100.00;52248.34;5010050;28;19964;-69
2023/09/11 06:24:14;;;;;;;;;;;;;;;-144.99;100.00;52207.59;5003687;28;20053;-69
2023/09/11 06:26:42;;;;;;;;;;;;;;;-144.99;100.00;52207.59;5009406;28;20440;-69
2023/09/11 06:29:08;;;;;;;;;;;;;;;-144.99;100.00;52227.97;5007741;28;20363;-68
2023/09/11 06:31:35;;;;;;;;;;;;;;;-144.99;100.00;52250.38;5009481;28;19981;-68
2023/09/11 06:34:02;;;;;;;;;;;;;;;-144.99;100.00;52207.59;5003330;28;19972;-70
2023/09/11 06:36:28;;;;;;;;;;;;;;;-144.99;100.00;52227.97;5009387;28;19985;-71
2023/09/11 06:38:56;;;;;;;;;;;;;;;-144.99;100.00;52215.75;5006730;28;20034;-69
2023/09/11 06:41:23;;;;;;;;;;;;;;;-144.99;100.00;52227.97;5012887;28;19947;-69
2023/09/11 06:43:49;;;;;;;;;;;;;;;-144.99;100.00;52227.97;5010289;28;20388;-71
2023/09/11 06:46:16;;;;;;;;;;;;;;;-144.99;100.00;52215.75;5012222;28;20430;-71
2023/09/11 06:48:42;;;;;;;;;;;;;;;-144.99;100.00;52232.03;5007808;28;19954;-71
2023/09/11 06:51:09;;;;;;;;;;;;;;;-144.99;100.00;52236.13;5005911;28;20042;-71
2023/09/11 06:53:35;;;;;;;;;;;;;;;-144.99;100.00;52168.84;5005707;28;20059;-71
2023/09/11 06:56:06;;;;;;;;;;;;;;;-144.99;100.00;52215.75;5009073;28;20042;-70
2023/09/11 06:58:33;;;;;;;;;;;;;;;-144.99;100.00;52187.19;4988138;28;19956;-72
2023/09/11 07:01:00;;;;;;;;;;;;;;;-144.99;100.00;52174.97;5009211;28;20059;-70
2023/09/11 07:03:27;;;;;;;;;;;;;;;-144.99;100.00;52205.53;5002507;28;19965;-70
2023/09/11 07:05:53;;;;;;;;;;;;;;;-144.99;100.00;52219.81;5008867;28;19949;-70
2023/09/11 07:08:19;;;;;;;;;;;;;;;-144.99;100.00;52219.81;5008576;28;20001;-69
2023/09/11 07:10:49;;;;;;;;;;;;;;;-144.99;100.00;52179.06;5007061;28;20403;-69
2023/09/11 07:13:16;;;;;;;;;;;;;;;-144.99;100.00;52217.78;4997001;28;20072;-69
2023/09/11 07:15:43;;;;;;;;;;;;;;;-144.99;100.00;52203.50;5005453;28;19998;-69
2023/09/11 07:18:09;;;;;;;;;;;;;;;-144.99;100.00;52211.66;5009070;28;19960;-70
2023/09/11 07:20:36;;;;;;;;;;;;;;;-144.99;100.00;52170.91;5008513;28;19948;-69
2023/09/11 07:23:02;;;;;;;;;;;;;;;-144.99;100.00;52215.75;5009889;28;20359;-69
2023/09/11 07:25:29;;;;;;;;;;;;;;;-144.99;99.21;52179.06;5004868;28;19951;-70
2023/09/11 07:27:55;;;;;;;;;;;;;;;-144.99;98.28;52166.81;5009178;28;20360;-69
2023/09/11 07:30:23;;;;;;;;;;;;;;;-144.99;97.60;52207.59;5001748;28;19980;-70
2023/09/11 07:32:52;;;;;;;;;;;;;;;-144.99;96.77;52227.97;5007961;28;20443;-70
2023/09/11 07:35:18;;;;;;;;;;;;;;;-144.99;96.06;52174.97;5000261;28;19976;-70
2023/09/11 07:37:45;;;;;;;;;;;;;;;-144.99;94.65;52203.50;5024458;23;20011;-69
2023/09/11 07:40:12;;;;;;;;;;;;;;;-144.99;94.29;52146.44;5012947;28;19943;-68
2023/09/11 07:42:38;;;;;;;;;;;;;;;-144.99;94.01;52219.81;5004554;28;20360;-69
2023/09/11 07:45:06;;;;;;;;;;;;;;;-144.99;93.97;52154.59;4994788;28;19996;-68
2023/09/11 07:47:34;;;;;;;;;;;;;;;-144.99;94.27;52174.97;4996216;28;19953;-70
2023/09/11 07:50:00;;;;;;;;;;;;;;;-144.99;94.74;52160.72;5004009;28;20644;-67
2023/09/11 07:52:27;;;;;;;;;;;;;;;-144.99;95.08;52164.78;5002898;28;19961;-68
2023/09/11 07:54:53;;;;;;;;;;;;;;;-144.99;93.66;52160.72;4999527;28;20444;-68
2023/09/11 07:57:20;;;;;;;;;;;;;;;-144.99;92.83;52138.28;5001626;28;19941;-68
2023/09/11 07:59:46;;;;;;;;;;;;;;;-144.99;92.07;52174.97;4999052;28;20156;-68
2023/09/11 08:02:13;;;;;;;;;;;;;;;-144.99;91.62;52166.81;5000035;28;19982;-67
2023/09/11 08:04:40;;;;;;;;;;;;;;;-144.99;90.39;52170.91;5002113;28;19994;-68
2023/09/11 08:07:07;;;;;;;;;;;;;;;-144.99;89.80;52138.28;4993959;28;20066;-67
2023/09/11 08:09:34;;;;;;;;;;;;;;;-144.99;88.97;52134.22;4997890;28;20269;-67
2023/09/11 08:12:00;;;;;;;;;;;;;;;-144.99;88.05;52121.97;4995917;28;20340;-68
2023/09/11 08:14:27;;;;;;;;;;;;;;;-144.99;87.06;52158.66;5003227;28;20045;-67
2023/09/11 08:16:53;;;;;;;;;;;;;;;-144.99;86.92;52148.47;4993243;28;19948;-68
2023/09/11 08:19:20;;;;;;;;;;;;;;;-144.99;85.95;52174.97;4993675;28;19972;-68
2023/09/11 08:21:48;;;;;;;;;;;;;;;-144.99;86.28;52130.13;4998056;28;19972;-67
2023/09/11 08:24:14;;;;;;;;;;;;;;;-144.99;85.38;52146.44;5004352;28;19971;-68
2023/09/11 08:26:41;;;;;;;;;;;;;;;-144.99;84.85;52158.66;5006048;28;19958;-70
2023/09/11 08:29:10;;;;;;;;;;;;;;;-144.99;84.43;52095.50;4996095;28;20426;-67
2023/09/11 08:31:37;;;;;;;;;;;;;;;-144.99;83.38;52146.44;5002268;28;20314;-67
2023/09/11 08:34:04;;;;;;;;;;;;;;;-144.99;83.17;52109.75;5000731;28;20052;-67
2023/09/11 08:36:30;;;;;;;;;;;;;;;-144.99;82.16;52085.31;4993295;28;19999;-67
2023/09/11 08:38:58;;;;;;;;;;;;;;;-144.99;81.95;52146.44;4996756;28;20417;-69
2023/09/11 08:41:24;;;;;;;;;;;;;;;-144.99;82.00;52109.75;4992036;28;20023;-67
2023/09/11 08:43:51;;;;;;;;;;;;;;;-144.99;80.59;52109.75;4999633;28;20015;-69
2023/09/11 08:46:18;;;;;;;;;;;;;;;-144.99;79.56;52117.91;4998040;28;20060;-68
2023/09/11 08:48:45;;;;;;;;;;;;;;;-144.99;78.92;52152.56;4996159;28;20028;-67
2023/09/11 08:51:13;;;;;;;;;;;;;;;-144.99;78.23;52113.84;4998396;28;19949;-67
2023/09/11 08:53:40;;;;;;;;;;;;;;;-144.99;77.03;52101.59;4996389;28;20049;-67
2023/09/11 08:56:09;;;;;;;;;;;;;;;-144.99;76.81;52105.69;4998603;28;20403;-67
2023/09/11 08:58:36;;;;;;;;;;;;;;;-144.99;76.29;52105.69;4994314;28;20044;-67
2023/09/11 09:01:02;;;;;;;;;;;;;;;-144.99;75.54;52077.16;4996961;28;20424;-68
2023/09/11 09:03:29;;;;;;;;;;;;;;;-144.99;75.10;52107.72;5002235;28;19960;-67
2023/09/11 09:05:56;;;;;;;;;;;;;;;-144.99;74.51;52095.50;4993154;28;19963;-68
2023/09/11 09:08:22;;;;;;;;;;;;;;;-144.99;73.30;52081.22;4998403;28;20258;-67
2023/09/11 09:10:49;;;;;;;;;;;;;;;-144.99;72.62;52081.22;4994755;28;20006;-68
2023/09/11 09:13:17;;;;;;;;;;;;;;;-144.99;72.04;52056.78;4996744;28;20009;-68
2023/09/11 09:15:44;;;;;;;;;;;;;;;-144.99;72.51;52077.16;4994354;28;19945;-68
2023/09/11 09:18:11;;;;;;;;;;;;;;;-144.99;72.70;52081.22;4997494;28;19963;-68
2023/09/11 09:20:38;;;;;;;;;;;;;;;-144.99;71.76;52085.31;4993494;28;20004;-68
2023/09/11 09:23:06;;;;;;;;;;;;;;;-144.99;71.30;52083.25;5000353;28;19962;-68
2023/09/11 09:25:32;;;;;;;;;;;;;;;-144.99;70.08;52048.63;4996681;28;20368;-68
2023/09/11 09:27:59;;;;;;;;;;;;;;;-144.99;69.90;52081.22;4994818;28;19998;-68
2023/09/11 09:30:28;;;;;;;;;;;;;;;-144.99;69.11;52032.31;4996200;28;20027;-68
2023/09/11 09:32:55;;;;;;;;;;;;;;;-144.99;68.77;52034.34;5001298;28;20465;-66
2023/09/11 09:35:22;;;;;;;;;;;;;;;-144.99;68.78;52052.69;4996739;28;19944;-66
2023/09/11 09:37:49;;;;;;;;;;;;;;;-144.99;68.36;52036.38;5000613;28;19999;-67
2023/09/11 09:40:36;;;;;;;;;;;;;;;-144.99;67.87;52058.81;4994725;28;19971;-68
2023/09/11 09:43:06;;;;;;;;;;;;;;;-144.99;68.56;52081.22;5003418;28;20440;-73
2023/09/11 09:45:35;;;;;;;;;;;;;;;-144.99;68.86;52085.31;4996202;28;20062;-73
2023/09/11 09:48:05;;;;;;;;;;;;;;;-144.99;67.38;52052.69;4995878;28;20288;-71
2023/09/11 09:50:46;;;;;;;;;;;;;;;-144.99;67.89;52064.91;4993134;28;20394;-69
2023/09/11 09:53:20;;;;;;;;;;;;;;;-144.99;68.45;52085.31;4992255;28;19980;-69
2023/09/11 09:55:47;;;;;;;;;;;;;;;-144.99;67.95;52040.47;4991195;28;19973;-68
2023/09/11 09:58:16;;;;;;;;;;;;;;;-144.99;67.61;52028.22;4997419;28;19951;-67
2023/09/11 10:00:44;;;;;;;;;;;;;;;-144.99;66.96;52058.81;4990924;28;19963;-67
2023/09/11 10:03:12;;;;;;;;;;;;;;;-144.99;65.73;52036.38;4993393;28;20372;-67
2023/09/11 10:05:40;;;;;;;;;;;;;;;-144.99;66.04;52044.53;4996610;28;19985;-67
2023/09/11 10:08:07;;;;;;;;;;;;;;;-144.99;66.90;52060.84;4993935;28;19964;-67
2023/09/11 10:10:34;;;;;;;;;;;;;;;-144.99;66.58;52032.31;4996440;28;19990;-67
2023/09/11 10:13:05;;;;;;;;;;;;;;;-144.99;66.24;52020.09;5000925;28;19965;-67
2023/09/11 10:15:32;;;;;;;;;;;;;;;-144.99;66.35;52040.47;5000759;28;19949;-67
2023/09/11 10:18:01;;;;;;;;;;;;;;;-144.99;65.00;51999.69;5000875;28;20434;-68
2023/09/11 10:20:27;;;;;;;;;;;;;;;-144.99;64.00;51983.41;4997413;28;20434;-67
2023/09/11 10:22:55;;;;;;;;;;;;;;;-144.99;62.77;51954.88;4997283;28;19967;-67
2023/09/11 10:25:22;;;;;;;;;;;;;;;-144.99;62.17;51938.56;4994726;28;20371;-67
2023/09/11 10:27:50;;;;;;;;;;;;;;;-144.99;61.41;51926.34;4991822;28;20154;-67
2023/09/11 10:30:20;;;;;;;;;;;;;;;-144.99;60.57;51946.72;4991393;28;20304;-67
2023/09/11 10:32:50;;;;;;;;;;;;;;;-144.99;60.10;51920.22;4990329;28;19991;-67
2023/09/11 10:35:18;;;;;;;;;;;;;;;-144.99;60.46;51950.78;5000732;28;19988;-68
2023/09/11 10:37:45;;;;;;;;;;;;;;;-144.99;60.86;51936.53;5001177;28;19948;-67
2023/09/11 10:40:12;;;;;;;;;;;;;;;-144.99;60.27;51922.25;4995430;28;20018;-67
2023/09/11 10:42:41;;;;;;;;;;;;;;;-144.99;59.35;51942.63;5001207;28;20045;-66
2023/09/11 10:45:25;;;;;;;;;;;;;;;-144.99;58.65;51869.28;4989215;28;20005;-66
2023/09/11 10:47:51;;;;;;;;;;;;;;;-144.99;58.75;51885.56;4989677;28;20016;-66
2023/09/11 10:50:19;;;;;;;;;;;;;;;-144.99;58.66;51885.56;4992873;28;19990;-66
2023/09/11 10:52:46;;;;;;;;;;;;;;;-144.99;59.11;51881.50;4996918;28;19990;-66
2023/09/11 10:55:12;;;;;;;;;;;;;;;-144.99;59.17;51885.56;4988739;28;20413;-66
2023/09/11 10:57:39;;;;;;;;;;;;;;;-144.99;59.13;51861.13;4997871;28;20123;-66
2023/09/11 11:00:06;;;;;;;;;;;;;;;-144.99;58.48;51857.03;5000755;28;20457;-69
2023/09/11 11:02:32;;;;;;;;;;;;;;;-144.99;58.32;51812.22;4998716;28;20065;-68
2023/09/11 11:05:00;;;;;;;;;;;;;;;-144.99;59.24;51897.81;4989163;28;19947;-67
2023/09/11 11:07:28;;;;;;;;;;;;;;;-144.99;59.25;51846.84;4995701;28;20033;-70
2023/09/11 11:09:55;;;;;;;;;;;;;;;-144.99;59.35;51844.81;4988158;28;20019;-69
2023/09/11 11:12:31;;;;;;;;;;;;;;;-144.99;58.49;51840.75;4988807;28;19992;-70
2023/09/11 11:15:12;;;;;;;;;;;;;;;-144.99;58.16;51820.38;4995156;28;19958;-70
2023/09/11 11:17:40;;;;;;;;;;;;;;;-144.99;56.87;51840.75;4989353;28;19981;-70
2023/09/11 11:20:07;;;;;;;;;;;;;;;-144.99;57.95;51885.56;4988566;28;19958;-68
2023/09/11 11:22:39;;;;;;;;;;;;;;;-144.99;59.71;51938.56;4988985;28;20336;-69
2023/09/11 11:25:10;;;;;;;;;;;;;;;-144.99;60.85;51924.28;4988635;28;20411;-69
2023/09/11 11:27:36;;;;;;;;;;;;;;;-144.99;61.71;51946.72;4998884;28;20055;-69
2023/09/11 11:30:05;;;;;;;;;;;;;;;-144.99;61.97;51926.34;4993381;28;19946;-71
2023/09/11 11:32:31;;;;;;;;;;;;;;;-144.99;62.17;51922.25;5004500;28;20372;-72
2023/09/11 11:35:00;;;;;;;;;;;;;;;-144.99;62.40;51934.50;4989605;28;20375;-70
2023/09/11 11:37:26;;;;;;;;;;;;;;;-144.99;61.39;51914.09;4989691;28;20033;-72
2023/09/11 11:39:54;;;;;;;;;;;;;;;-144.99;60.73;51873.34;4994868;28;20269;-70
2023/09/11 11:42:21;;;;;;;;;;;;;;;-144.99;60.88;51889.66;4998525;28;20037;-71
2023/09/11 11:44:48;;;;;;;;;;;;;;;-144.99;59.82;51889.66;5001584;28;20294;-71
2023/09/11 11:47:15;;;;;;;;;;;;;;;-144.99;60.53;51897.81;4992296;28;19993;-71
2023/09/11 11:49:42;;;;;;;;;;;;;;;-144.99;59.80;51901.88;4996156;28;20310;-71
2023/09/11 11:52:08;;;;;;;;;;;;;;;-144.99;60.43;51938.56;4996179;28;20442;-71
2023/09/11 11:54:35;;;;;;;;;;;;;;;-144.99;61.53;51897.81;4991665;28;20007;-71
2023/09/11 11:57:04;;;;;;;;;;;;;;;-144.99;60.90;51914.09;4995328;28;19980;-71
2023/09/11 11:59:31;;;;;;;;;;;;;;;-144.99;60.44;51861.13;4993935;28;20104;-72
2023/09/11 12:01:58;;;;;;;;;;;;;;;-144.99;59.42;51897.81;4999211;28;19949;-71
2023/09/11 12:04:25;;;;;;;;;;;;;;;-144.99;60.42;51861.13;4990059;28;20004;-70
2023/09/11 12:06:52;;;;;;;;;;;;;;;-144.99;61.11;51940.59;4991579;28;20009;-70
2023/09/11 12:09:20;;;;;;;;;;;;;;;-144.99;60.60;51852.97;4991339;28;20410;-70
2023/09/11 12:11:46;;;;;;;;;;;;;;;-144.99;59.53;51865.19;5002992;28;19995;-70
2023/09/11 12:14:15;;;;;;;;;;;;;;;-144.99;59.10;51832.59;4994618;28;19966;-70
2023/09/11 12:16:41;;;;;;;;;;;;;;;-144.99;57.55;51808.13;4991519;28;20028;-69
2023/09/11 12:19:08;;;;;;;;;;;;;;;-144.99;57.92;51836.66;4998275;28;19939;-69
2023/09/11 12:21:35;;;;;;;;;;;;;;;-144.99;58.05;51820.38;4992588;28;19955;-70